sensor_id;sensor_type;location;lat;lon;timestamp;temperature;humidity
49042;DHT22;34859;51.608;11.462;2023-06-22T00:00:49;21.10;99.90
49042;DHT22;34859;51.608;11.462;2023-06-22T00:03:15;21.10;99.90
49042;DHT22;34859;51.608;11.462;2023-06-22T00:05:40;21.10;99.90
49042;DHT22;34859;51.608;11.462;2023-06-22T00:08:07;21.10;99.90
49042;DHT22;34859;51.608;11.462;2023-06-22T00:10:32;21.10;99.90
49042;DHT22;34859;51.608;11.462;2023-06-22T00:12:58;21.10;99.90
49042;DHT22;34859;51.608;11.462;2023-06-22T00:15:24;21.10;99.90
49042;DHT22;34859;51.608;11.462;2023-06-22T00:17:49;21.10;99.90
49042;DHT22;34859;51.608;11.462;2023-06-22T00:20:15;21.10;99.90
49042;DHT22;34859;51.608;11.462;2023-06-22T00:22:42;21.00;99.90
49042;DHT22;34859;51.608;11.462;2023-06-22T00:25:09;21.00;99.90
49042;DHT22;34859;51.608;11.462;2023-06-22T00:27:35;21.00;99.90
49042;DHT22;34859;51.608;11.462;2023-06-22T00:30:00;20.90;99.90
49042;DHT22;34859;51.608;11.462;2023-06-22T00:32:27;20.90;99.90
49042;DHT22;34859;51.608;11.462;2023-06-22T00:34:53;20.90;99.90
49042;DHT22;34859;51.608;11.462;2023-06-22T00:37:19;20.80;99.90
49042;DHT22;34859;51.608;11.462;2023-06-22T00:39:44;20.80;99.90
49042;DHT22;34859;51.608;11.462;2023-06-22T00:42:11;20.70;99.90
49042;DHT22;34859;51.608;11.462;2023-06-22T00:44:37;20.60;99.90
49042;DHT22;34859;51.608;11.462;2023-06-22T00:47:03;20.60;99.90
49042;DHT22;34859;51.608;11.462;2023-06-22T00:49:28;20.60;99.90
49042;DHT22;34859;51.608;11.462;2023-06-22T00:51:54;20.60;99.90
49042;DHT22;34859;51.608;11.462;2023-06-22T00:54:21;20.60;99.90
49042;DHT22;34859;51.608;11.462;2023-06-22T00:56:52;20.60;99.90
49042;DHT22;34859;51.608;11.462;2023-06-22T00:59:20;20.60;99.90
49042;DHT22;34859;51.608;11.462;2023-06-22T01:01:47;20.60;99.90
49042;DHT22;34859;51.608;11.462;2023-06-22T01:04:12;20.60;99.90
49042;DHT22;34859;51.608;11.462;2023-06-22T01:06:54;20.70;99.90
49042;DHT22;34859;51.608;11.462;2023-06-22T01:09:26;20.70;99.90
49042;DHT22;34859;51.608;11.462;2023-06-22T01:11:54;20.60;99.90
49042;DHT22;34859;51.608;11.462;2023-06-22T01:14:24;20.60;99.90
49042;DHT22;34859;51.608;11.462;2023-06-22T01:16:52;20.60;99.90
49042;DHT22;34859;51.608;11.462;2023-06-22T01:19:25;20.60;99.90
49042;DHT22;34859;51.608;11.462;2023-06-22T01:21:54;20.60;99.90
49042;DHT22;34859;51.608;11.462;2023-06-22T01:24:22;20.50;99.90
49042;DHT22;34859;51.608;11.462;2023-06-22T01:29:14;20.40;99.90
49042;DHT22;34859;51.608;11.462;2023-06-22T01:31:41;20.30;99.90
49042;DHT22;34859;51.608;11.462;2023-06-22T01:34:19;20.20;99.90
49042;DHT22;34859;51.608;11.462;2023-06-22T01:36:48;20.10;99.90
49042;DHT22;34859;51.608;11.462;2023-06-22T01:39:14;20.00;99.90
49042;DHT22;34859;51.608;11.462;2023-06-22T01:41:40;19.90;99.90
49042;DHT22;34859;51.608;11.462;2023-06-22T01:44:09;19.80;99.90
49042;DHT22;34859;51.608;11.462;2023-06-22T01:46:35;19.70;99.90
49042;DHT22;34859;51.608;11.462;2023-06-22T01:49:04;19.60;99.90
49042;DHT22;34859;51.608;11.462;2023-06-22T01:51:30;19.60;99.90
49042;DHT22;34859;51.608;11.462;2023-06-22T01:53:57;19.60;99.90
49042;DHT22;34859;51.608;11.462;2023-06-22T01:56:22;19.60;99.90
49042;DHT22;34859;51.608;11.462;2023-06-22T01:58:50;19.60;99.90
49042;DHT22;34859;51.608;11.462;2023-06-22T02:01:20;19.60;99.90
49042;DHT22;34859;51.608;11.462;2023-06-22T02:03:48;19.50;99.90
49042;DHT22;34859;51.608;11.462;2023-06-22T02:06:17;19.40;99.90
49042;DHT22;34859;51.608;11.462;2023-06-22T02:08:48;19.40;99.90
49042;DHT22;34859;51.608;11.462;2023-06-22T02:11:20;19.30;99.90
49042;DHT22;34859;51.608;11.462;2023-06-22T02:13:47;19.20;99.90
49042;DHT22;34859;51.608;11.462;2023-06-22T02:16:13;19.10;99.90
49042;DHT22;34859;51.608;11.462;2023-06-22T02:18:45;19.00;99.90
49042;DHT22;34859;51.608;11.462;2023-06-22T02:21:11;18.90;99.90
49042;DHT22;34859;51.608;11.462;2023-06-22T02:23:37;18.90;99.90
49042;DHT22;34859;51.608;11.462;2023-06-22T02:26:03;18.80;99.90
49042;DHT22;34859;51.608;11.462;2023-06-22T02:28:29;18.80;99.90
49042;DHT22;34859;51.608;11.462;2023-06-22T02:30:54;18.80;99.90
49042;DHT22;34859;51.608;11.462;2023-06-22T02:33:20;18.70;99.90
49042;DHT22;34859;51.608;11.462;2023-06-22T02:35:47;18.70;99.90
49042;DHT22;34859;51.608;11.462;2023-06-22T02:38:14;18.60;99.90
49042;DHT22;34859;51.608;11.462;2023-06-22T02:40:40;18.60;99.90
49042;DHT22;34859;51.608;11.462;2023-06-22T02:43:07;18.50;99.90
49042;DHT22;34859;51.608;11.462;2023-06-22T02:45:32;18.50;99.90
49042;DHT22;34859;51.608;11.462;2023-06-22T02:47:58;18.60;99.90
49042;DHT22;34859;51.608;11.462;2023-06-22T02:50:24;18.50;99.90
49042;DHT22;34859;51.608;11.462;2023-06-22T02:52:50;18.50;99.90
49042;DHT22;34859;51.608;11.462;2023-06-22T02:55:17;18.60;99.90
49042;DHT22;34859;51.608;11.462;2023-06-22T02:57:42;18.60;99.90
49042;DHT22;34859;51.608;11.462;2023-06-22T03:00:10;18.60;99.90
49042;DHT22;34859;51.608;11.462;2023-06-22T03:02:47;18.70;99.90
49042;DHT22;34859;51.608;11.462;2023-06-22T03:05:33;18.80;99.90
49042;DHT22;34859;51.608;11.462;2023-06-22T03:08:00;18.80;99.90
49042;DHT22;34859;51.608;11.462;2023-06-22T03:10:27;18.90;99.90
49042;DHT22;34859;51.608;11.462;2023-06-22T03:12:54;19.00;99.90
49042;DHT22;34859;51.608;11.462;2023-06-22T03:15:20;19.00;99.90
49042;DHT22;34859;51.608;11.462;2023-06-22T03:17:49;19.00;99.90
49042;DHT22;34859;51.608;11.462;2023-06-22T03:20:15;19.00;99.90
49042;DHT22;34859;51.608;11.462;2023-06-22T03:22:41;19.00;99.90
49042;DHT22;34859;51.608;11.462;2023-06-22T03:25:07;19.00;99.90
49042;DHT22;34859;51.608;11.462;2023-06-22T03:27:39;19.00;99.90
49042;DHT22;34859;51.608;11.462;2023-06-22T03:30:05;19.00;99.90
49042;DHT22;34859;51.608;11.462;2023-06-22T03:32:31;19.00;99.90
49042;DHT22;34859;51.608;11.462;2023-06-22T03:34:57;19.00;99.90
49042;DHT22;34859;51.608;11.462;2023-06-22T03:37:27;19.00;99.90
49042;DHT22;34859;51.608;11.462;2023-06-22T03:39:53;19.00;99.90
49042;DHT22;34859;51.608;11.462;2023-06-22T03:42:20;19.10;99.90
49042;DHT22;34859;51.608;11.462;2023-06-22T03:44:47;19.10;99.90
49042;DHT22;34859;51.608;11.462;2023-06-22T03:47:12;19.10;99.90
49042;DHT22;34859;51.608;11.462;2023-06-22T03:49:38;19.10;99.90
49042;DHT22;34859;51.608;11.462;2023-06-22T03:52:04;19.10;99.90
49042;DHT22;34859;51.608;11.462;2023-06-22T03:54:30;19.10;99.90
49042;DHT22;34859;51.608;11.462;2023-06-22T03:56:57;19.20;99.90
49042;DHT22;34859;51.608;11.462;2023-06-22T03:59:23;19.20;99.90
49042;DHT22;34859;51.608;11.462;2023-06-22T04:01:49;19.20;99.90
49042;DHT22;34859;51.608;11.462;2023-06-22T04:04:20;19.30;99.90
49042;DHT22;34859;51.608;11.462;2023-06-22T04:06:47;19.30;99.90
49042;DHT22;34859;51.608;11.462;2023-06-22T04:09:12;19.30;99.90
49042;DHT22;34859;51.608;11.462;2023-06-22T04:11:38;19.30;99.90
49042;DHT22;34859;51.608;11.462;2023-06-22T04:14:24;19.30;99.90
49042;DHT22;34859;51.608;11.462;2023-06-22T04:17:09;19.40;99.90
49042;DHT22;34859;51.608;11.462;2023-06-22T04:19:55;19.40;99.90
49042;DHT22;34859;51.608;11.462;2023-06-22T04:22:40;19.40;99.90
49042;DHT22;34859;51.608;11.462;2023-06-22T04:25:26;19.50;99.90
49042;DHT22;34859;51.608;11.462;2023-06-22T04:27:52;19.50;99.90
49042;DHT22;34859;51.608;11.462;2023-06-22T04:30:17;19.50;99.90
49042;DHT22;34859;51.608;11.462;2023-06-22T04:32:44;19.50;99.90
49042;DHT22;34859;51.608;11.462;2023-06-22T04:35:10;19.60;99.90
49042;DHT22;34859;51.608;11.462;2023-06-22T04:37:39;19.60;99.90
49042;DHT22;34859;51.608;11.462;2023-06-22T04:40:05;19.60;99.90
49042;DHT22;34859;51.608;11.462;2023-06-22T04:42:31;19.60;99.90
49042;DHT22;34859;51.608;11.462;2023-06-22T04:44:57;19.60;99.90
49042;DHT22;34859;51.608;11.462;2023-06-22T04:47:23;19.60;99.90
49042;DHT22;34859;51.608;11.462;2023-06-22T04:50:03;19.60;99.90
49042;DHT22;34859;51.608;11.462;2023-06-22T04:52:31;19.70;99.90
49042;DHT22;34859;51.608;11.462;2023-06-22T04:54:58;19.70;99.90
49042;DHT22;34859;51.608;11.462;2023-06-22T04:57:27;19.70;99.90
49042;DHT22;34859;51.608;11.462;2023-06-22T05:00:00;19.70;99.90
49042;DHT22;34859;51.608;11.462;2023-06-22T05:02:39;19.70;99.90
49042;DHT22;34859;51.608;11.462;2023-06-22T05:05:05;19.70;99.90
49042;DHT22;34859;51.608;11.462;2023-06-22T05:07:35;19.70;99.90
49042;DHT22;34859;51.608;11.462;2023-06-22T05:10:04;19.70;99.90
49042;DHT22;34859;51.608;11.462;2023-06-22T05:12:30;19.70;99.90
49042;DHT22;34859;51.608;11.462;2023-06-22T05:14:57;19.70;99.90
49042;DHT22;34859;51.608;11.462;2023-06-22T05:17:22;19.70;99.90
49042;DHT22;34859;51.608;11.462;2023-06-22T05:19:48;19.80;99.90
49042;DHT22;34859;51.608;11.462;2023-06-22T05:22:14;19.80;99.90
49042;DHT22;34859;51.608;11.462;2023-06-22T05:24:40;19.80;99.90
49042;DHT22;34859;51.608;11.462;2023-06-22T05:27:10;19.80;99.90
49042;DHT22;34859;51.608;11.462;2023-06-22T05:29:37;19.80;99.90
49042;DHT22;34859;51.608;11.462;2023-06-22T05:32:03;19.90;99.90
49042;DHT22;34859;51.608;11.462;2023-06-22T05:34:29;19.90;99.90
49042;DHT22;34859;51.608;11.462;2023-06-22T05:36:54;19.90;99.90
49042;DHT22;34859;51.608;11.462;2023-06-22T05:39:20;20.00;99.90
49042;DHT22;34859;51.608;11.462;2023-06-22T05:41:47;20.00;99.90
49042;DHT22;34859;51.608;11.462;2023-06-22T05:44:12;20.00;99.90
49042;DHT22;34859;51.608;11.462;2023-06-22T05:46:40;20.00;99.90
49042;DHT22;34859;51.608;11.462;2023-06-22T05:49:10;20.00;99.90
49042;DHT22;34859;51.608;11.462;2023-06-22T05:51:37;20.00;99.90
49042;DHT22;34859;51.608;11.462;2023-06-22T05:54:03;20.00;99.90
49042;DHT22;34859;51.608;11.462;2023-06-22T05:56:43;20.10;99.90
49042;DHT22;34859;51.608;11.462;2023-06-22T05:59:09;20.20;99.90
49042;DHT22;34859;51.608;11.462;2023-06-22T06:01:34;20.20;99.90
49042;DHT22;34859;51.608;11.462;2023-06-22T06:04:01;20.30;99.90
49042;DHT22;34859;51.608;11.462;2023-06-22T06:06:27;20.30;99.90
49042;DHT22;34859;51.608;11.462;2023-06-22T06:08:54;20.30;99.90
49042;DHT22;34859;51.608;11.462;2023-06-22T06:11:20;20.40;99.90
49042;DHT22;34859;51.608;11.462;2023-06-22T06:13:47;20.50;99.90
49042;DHT22;34859;51.608;11.462;2023-06-22T06:16:12;20.50;99.90
49042;DHT22;34859;51.608;11.462;2023-06-22T06:18:38;20.50;99.90
49042;DHT22;34859;51.608;11.462;2023-06-22T06:21:11;20.60;99.90
49042;DHT22;34859;51.608;11.462;2023-06-22T06:23:57;20.70;99.90
49042;DHT22;34859;51.608;11.462;2023-06-22T06:26:22;20.70;99.90
49042;DHT22;34859;51.608;11.462;2023-06-22T06:28:53;20.70;99.90
49042;DHT22;34859;51.608;11.462;2023-06-22T06:31:20;20.80;99.90
49042;DHT22;34859;51.608;11.462;2023-06-22T06:33:49;20.80;99.90
49042;DHT22;34859;51.608;11.462;2023-06-22T06:36:14;20.90;99.90
49042;DHT22;34859;51.608;11.462;2023-06-22T06:38:40;20.90;99.90
49042;DHT22;34859;51.608;11.462;2023-06-22T06:41:07;21.00;99.90
49042;DHT22;34859;51.608;11.462;2023-06-22T06:43:32;21.00;99.90
49042;DHT22;34859;51.608;11.462;2023-06-22T06:45:58;21.10;99.90
49042;DHT22;34859;51.608;11.462;2023-06-22T06:48:23;21.20;99.90
49042;DHT22;34859;51.608;11.462;2023-06-22T06:50:50;21.30;99.90
49042;DHT22;34859;51.608;11.462;2023-06-22T06:53:17;21.30;99.90
49042;DHT22;34859;51.608;11.462;2023-06-22T06:55:43;21.40;99.90
49042;DHT22;34859;51.608;11.462;2023-06-22T06:58:10;21.50;99.90
49042;DHT22;34859;51.608;11.462;2023-06-22T07:00:38;21.60;99.90
49042;DHT22;34859;51.608;11.462;2023-06-22T07:03:04;21.60;99.90
49042;DHT22;34859;51.608;11.462;2023-06-22T07:05:30;21.80;99.90
49042;DHT22;34859;51.608;11.462;2023-06-22T07:07:57;21.80;99.90
49042;DHT22;34859;51.608;11.462;2023-06-22T07:10:42;21.80;99.90
49042;DHT22;34859;51.608;11.462;2023-06-22T07:13:08;21.90;99.90
49042;DHT22;34859;51.608;11.462;2023-06-22T07:15:33;21.90;99.90
49042;DHT22;34859;51.608;11.462;2023-06-22T07:17:59;22.00;99.90
49042;DHT22;34859;51.608;11.462;2023-06-22T07:20:25;22.00;99.90
49042;DHT22;34859;51.608;11.462;2023-06-22T07:22:51;22.00;99.90
49042;DHT22;34859;51.608;11.462;2023-06-22T07:25:17;22.00;99.90
49042;DHT22;34859;51.608;11.462;2023-06-22T07:27:44;22.10;99.90
49042;DHT22;34859;51.608;11.462;2023-06-22T07:30:10;22.30;99.90
49042;DHT22;34859;51.608;11.462;2023-06-22T07:32:41;22.40;99.90
49042;DHT22;34859;51.608;11.462;2023-06-22T07:35:08;22.40;99.90
49042;DHT22;34859;51.608;11.462;2023-06-22T07:37:33;22.50;99.90
49042;DHT22;34859;51.608;11.462;2023-06-22T07:40:00;22.60;99.90
49042;DHT22;34859;51.608;11.462;2023-06-22T07:42:27;22.60;99.90
49042;DHT22;34859;51.608;11.462;2023-06-22T07:44:58;22.70;99.90
49042;DHT22;34859;51.608;11.462;2023-06-22T07:47:23;22.80;99.90
49042;DHT22;34859;51.608;11.462;2023-06-22T07:49:57;23.00;99.90
49042;DHT22;34859;51.608;11.462;2023-06-22T07:52:24;22.90;99.90
49042;DHT22;34859;51.608;11.462;2023-06-22T07:54:50;23.00;99.90
49042;DHT22;34859;51.608;11.462;2023-06-22T07:57:17;23.00;99.90
49042;DHT22;34859;51.608;11.462;2023-06-22T07:59:44;23.10;99.90
49042;DHT22;34859;51.608;11.462;2023-06-22T08:02:10;23.20;99.90
49042;DHT22;34859;51.608;11.462;2023-06-22T08:04:37;23.20;99.90
49042;DHT22;34859;51.608;11.462;2023-06-22T08:07:02;23.20;99.90
49042;DHT22;34859;51.608;11.462;2023-06-22T08:09:29;23.30;99.90
49042;DHT22;34859;51.608;11.462;2023-06-22T08:11:57;23.40;99.90
49042;DHT22;34859;51.608;11.462;2023-06-22T08:14:25;23.50;99.90
49042;DHT22;34859;51.608;11.462;2023-06-22T08:16:51;23.50;99.90
49042;DHT22;34859;51.608;11.462;2023-06-22T08:19:28;23.60;99.90
49042;DHT22;34859;51.608;11.462;2023-06-22T08:21:54;23.70;99.90
49042;DHT22;34859;51.608;11.462;2023-06-22T08:24:20;23.80;99.90
49042;DHT22;34859;51.608;11.462;2023-06-22T08:26:47;23.90;99.90
49042;DHT22;34859;51.608;11.462;2023-06-22T08:29:12;23.90;99.90
49042;DHT22;34859;51.608;11.462;2023-06-22T08:31:38;24.10;99.90
49042;DHT22;34859;51.608;11.462;2023-06-22T08:34:04;24.00;99.90
49042;DHT22;34859;51.608;11.462;2023-06-22T08:36:29;24.20;99.90
49042;DHT22;34859;51.608;11.462;2023-06-22T08:38:58;24.40;99.90
49042;DHT22;34859;51.608;11.462;2023-06-22T08:41:32;24.60;99.90
49042;DHT22;34859;51.608;11.462;2023-06-22T08:43:57;24.70;99.90
49042;DHT22;34859;51.608;11.462;2023-06-22T08:46:23;24.70;99.90
49042;DHT22;34859;51.608;11.462;2023-06-22T08:48:57;24.70;99.90
49042;DHT22;34859;51.608;11.462;2023-06-22T08:51:27;24.70;99.90
49042;DHT22;34859;51.608;11.462;2023-06-22T08:53:54;24.70;99.90
49042;DHT22;34859;51.608;11.462;2023-06-22T08:56:19;24.80;99.90
49042;DHT22;34859;51.608;11.462;2023-06-22T08:58:47;24.90;99.90
49042;DHT22;34859;51.608;11.462;2023-06-22T09:01:12;25.10;99.90
49042;DHT22;34859;51.608;11.462;2023-06-22T09:03:41;25.20;99.90
49042;DHT22;34859;51.608;11.462;2023-06-22T09:08:35;25.30;99.90
49042;DHT22;34859;51.608;11.462;2023-06-22T09:11:01;25.40;99.90
49042;DHT22;34859;51.608;11.462;2023-06-22T09:13:29;25.40;99.90
49042;DHT22;34859;51.608;11.462;2023-06-22T09:15:55;25.40;99.90
49042;DHT22;34859;51.608;11.462;2023-06-22T09:18:21;25.50;99.90
49042;DHT22;34859;51.608;11.462;2023-06-22T09:20:47;25.60;99.90
49042;DHT22;34859;51.608;11.462;2023-06-22T09:23:16;25.60;99.90
49042;DHT22;34859;51.608;11.462;2023-06-22T09:25:42;25.60;99.90
49042;DHT22;34859;51.608;11.462;2023-06-22T09:28:27;25.70;99.90
49042;DHT22;34859;51.608;11.462;2023-06-22T09:30:53;25.70;99.90
49042;DHT22;34859;51.608;11.462;2023-06-22T09:33:23;25.80;99.90
49042;DHT22;34859;51.608;11.462;2023-06-22T09:35:49;25.90;99.90
49042;DHT22;34859;51.608;11.462;2023-06-22T09:38:17;26.00;99.90
49042;DHT22;34859;51.608;11.462;2023-06-22T09:40:42;26.10;99.90
49042;DHT22;34859;51.608;11.462;2023-06-22T09:43:08;26.20;99.90
49042;DHT22;34859;51.608;11.462;2023-06-22T09:45:34;26.30;99.90
49042;DHT22;34859;51.608;11.462;2023-06-22T09:48:00;26.20;99.90
49042;DHT22;34859;51.608;11.462;2023-06-22T09:50:27;26.10;99.90
49042;DHT22;34859;51.608;11.462;2023-06-22T09:52:53;26.00;99.90
49042;DHT22;34859;51.608;11.462;2023-06-22T09:55:20;26.10;99.90
49042;DHT22;34859;51.608;11.462;2023-06-22T09:57:47;26.30;99.90
49042;DHT22;34859;51.608;11.462;2023-06-22T10:00:13;26.40;99.90
49042;DHT22;34859;51.608;11.462;2023-06-22T10:02:39;26.50;99.90
49042;DHT22;34859;51.608;11.462;2023-06-22T10:05:05;26.60;99.90
49042;DHT22;34859;51.608;11.462;2023-06-22T10:07:31;26.70;99.90
49042;DHT22;34859;51.608;11.462;2023-06-22T10:09:57;26.70;99.90
49042;DHT22;34859;51.608;11.462;2023-06-22T10:12:22;26.70;99.90
49042;DHT22;34859;51.608;11.462;2023-06-22T10:14:48;26.70;99.90
49042;DHT22;34859;51.608;11.462;2023-06-22T10:17:13;26.60;99.90
49042;DHT22;34859;51.608;11.462;2023-06-22T10:19:39;26.70;99.90
49042;DHT22;34859;51.608;11.462;2023-06-22T10:22:07;26.80;99.90
49042;DHT22;34859;51.608;11.462;2023-06-22T10:24:32;26.70;99.90
49042;DHT22;34859;51.608;11.462;2023-06-22T10:26:58;26.70;99.90
49042;DHT22;34859;51.608;11.462;2023-06-22T10:29:23;26.80;99.90
49042;DHT22;34859;51.608;11.462;2023-06-22T10:31:49;26.80;99.90
49042;DHT22;34859;51.608;11.462;2023-06-22T10:34:15;26.80;99.90
49042;DHT22;34859;51.608;11.462;2023-06-22T10:36:41;26.80;99.90
49042;DHT22;34859;51.608;11.462;2023-06-22T10:39:07;27.00;99.90
49042;DHT22;34859;51.608;11.462;2023-06-22T10:41:32;27.10;99.90
49042;DHT22;34859;51.608;11.462;2023-06-22T10:43:58;27.00;99.90
49042;DHT22;34859;51.608;11.462;2023-06-22T10:46:24;27.00;99.90
49042;DHT22;34859;51.608;11.462;2023-06-22T10:48:50;26.90;99.90
49042;DHT22;34859;51.608;11.462;2023-06-22T10:51:17;27.10;99.90
49042;DHT22;34859;51.608;11.462;2023-06-22T10:53:42;27.30;99.90
49042;DHT22;34859;51.608;11.462;2023-06-22T10:56:08;27.50;99.90
49042;DHT22;34859;51.608;11.462;2023-06-22T10:58:34;27.60;99.90
49042;DHT22;34859;51.608;11.462;2023-06-22T11:00:59;27.70;99.90
49042;DHT22;34859;51.608;11.462;2023-06-22T11:03:25;27.70;99.90
49042;DHT22;34859;51.608;11.462;2023-06-22T11:05:50;27.80;99.90
49042;DHT22;34859;51.608;11.462;2023-06-22T11:08:17;28.00;99.90
49042;DHT22;34859;51.608;11.462;2023-06-22T11:10:43;28.10;99.90
49042;DHT22;34859;51.608;11.462;2023-06-22T11:13:09;27.90;99.90
49042;DHT22;34859;51.608;11.462;2023-06-22T11:15:35;27.80;99.90
49042;DHT22;34859;51.608;11.462;2023-06-22T11:18:01;27.60;99.90
49042;DHT22;34859;51.608;11.462;2023-06-22T11:20:27;27.40;99.90
49042;DHT22;34859;51.608;11.462;2023-06-22T11:22:53;27.50;99.90
49042;DHT22;34859;51.608;11.462;2023-06-22T11:25:19;27.40;99.90
49042;DHT22;34859;51.608;11.462;2023-06-22T11:27:44;27.40;99.90
49042;DHT22;34859;51.608;11.462;2023-06-22T11:30:10;27.50;99.90
49042;DHT22;34859;51.608;11.462;2023-06-22T11:32:37;27.80;99.90
49042;DHT22;34859;51.608;11.462;2023-06-22T11:35:02;27.90;99.90
49042;DHT22;34859;51.608;11.462;2023-06-22T11:37:28;28.00;99.90
49042;DHT22;34859;51.608;11.462;2023-06-22T11:39:54;28.20;99.90
49042;DHT22;34859;51.608;11.462;2023-06-22T11:42:20;28.00;99.90
49042;DHT22;34859;51.608;11.462;2023-06-22T11:44:47;27.90;99.90
49042;DHT22;34859;51.608;11.462;2023-06-22T11:47:12;27.90;99.90
49042;DHT22;34859;51.608;11.462;2023-06-22T11:49:38;28.00;99.90
49042;DHT22;34859;51.608;11.462;2023-06-22T11:52:03;28.00;99.90
49042;DHT22;34859;51.608;11.462;2023-06-22T11:54:29;27.70;99.90
49042;DHT22;34859;51.608;11.462;2023-06-22T11:56:55;27.60;99.90
49042;DHT22;34859;51.608;11.462;2023-06-22T11:59:20;27.60;99.90
49042;DHT22;34859;51.608;11.462;2023-06-22T12:01:47;27.60;99.90
49042;DHT22;34859;51.608;11.462;2023-06-22T12:04:13;27.60;99.90
49042;DHT22;34859;51.608;11.462;2023-06-22T12:06:41;27.50;99.90
49042;DHT22;34859;51.608;11.462;2023-06-22T12:09:08;27.50;99.90
49042;DHT22;34859;51.608;11.462;2023-06-22T12:11:34;27.70;99.90
49042;DHT22;34859;51.608;11.462;2023-06-22T12:13:59;27.80;99.90
49042;DHT22;34859;51.608;11.462;2023-06-22T12:16:28;28.10;99.90
49042;DHT22;34859;51.608;11.462;2023-06-22T12:18:53;28.40;99.90
49042;DHT22;34859;51.608;11.462;2023-06-22T12:21:20;28.50;99.90
49042;DHT22;34859;51.608;11.462;2023-06-22T12:23:47;28.70;99.90
49042;DHT22;34859;51.608;11.462;2023-06-22T12:26:12;28.80;99.90
49042;DHT22;34859;51.608;11.462;2023-06-22T12:28:38;28.90;99.90
49042;DHT22;34859;51.608;11.462;2023-06-22T12:31:23;28.90;99.90
49042;DHT22;34859;51.608;11.462;2023-06-22T12:34:09;29.00;99.90
49042;DHT22;34859;51.608;11.462;2023-06-22T12:36:54;28.90;99.90
49042;DHT22;34859;51.608;11.462;2023-06-22T12:39:40;29.00;99.90
49042;DHT22;34859;51.608;11.462;2023-06-22T12:42:08;29.20;99.90
49042;DHT22;34859;51.608;11.462;2023-06-22T12:44:34;29.30;99.90
49042;DHT22;34859;51.608;11.462;2023-06-22T12:47:00;29.50;99.90
49042;DHT22;34859;51.608;11.462;2023-06-22T12:49:27;29.30;99.90
49042;DHT22;34859;51.608;11.462;2023-06-22T12:51:53;29.30;99.90
49042;DHT22;34859;51.608;11.462;2023-06-22T12:54:19;29.30;99.90
49042;DHT22;34859;51.608;11.462;2023-06-22T12:56:44;29.30;99.90
49042;DHT22;34859;51.608;11.462;2023-06-22T12:59:10;29.50;99.90
49042;DHT22;34859;51.608;11.462;2023-06-22T13:01:41;29.40;99.90
49042;DHT22;34859;51.608;11.462;2023-06-22T13:04:09;29.10;99.90
49042;DHT22;34859;51.608;11.462;2023-06-22T13:06:38;28.80;99.90
49042;DHT22;34859;51.608;11.462;2023-06-22T13:09:04;28.60;99.90
49042;DHT22;34859;51.608;11.462;2023-06-22T13:11:30;28.60;99.90
49042;DHT22;34859;51.608;11.462;2023-06-22T13:13:59;28.50;99.90
49042;DHT22;34859;51.608;11.462;2023-06-22T13:16:27;28.40;99.90
49042;DHT22;34859;51.608;11.462;2023-06-22T13:18:53;28.50;99.90
49042;DHT22;34859;51.608;11.462;2023-06-22T13:21:18;28.80;99.90
49042;DHT22;34859;51.608;11.462;2023-06-22T13:23:44;28.90;99.90
49042;DHT22;34859;51.608;11.462;2023-06-22T13:26:10;29.10;99.90
49042;DHT22;34859;51.608;11.462;2023-06-22T13:28:35;29.20;99.90
49042;DHT22;34859;51.608;11.462;2023-06-22T13:31:01;29.30;99.90
49042;DHT22;34859;51.608;11.462;2023-06-22T13:33:27;29.30;99.90
49042;DHT22;34859;51.608;11.462;2023-06-22T13:35:53;29.30;99.90
49042;DHT22;34859;51.608;11.462;2023-06-22T13:38:19;29.50;99.90
49042;DHT22;34859;51.608;11.462;2023-06-22T13:40:44;29.40;99.90
49042;DHT22;34859;51.608;11.462;2023-06-22T13:43:10;29.50;99.90
49042;DHT22;34859;51.608;11.462;2023-06-22T13:45:37;29.70;99.90
49042;DHT22;34859;51.608;11.462;2023-06-22T13:48:02;29.90;99.90
49042;DHT22;34859;51.608;11.462;2023-06-22T13:50:28;30.00;99.90
49042;DHT22;34859;51.608;11.462;2023-06-22T13:52:55;29.90;99.90
49042;DHT22;34859;51.608;11.462;2023-06-22T13:55:21;29.90;99.90
49042;DHT22;34859;51.608;11.462;2023-06-22T13:57:47;29.70;99.90
49042;DHT22;34859;51.608;11.462;2023-06-22T14:00:13;29.60;99.90
49042;DHT22;34859;51.608;11.462;2023-06-22T14:02:38;29.70;99.90
49042;DHT22;34859;51.608;11.462;2023-06-22T14:05:10;29.60;99.90
49042;DHT22;34859;51.608;11.462;2023-06-22T14:07:37;29.40;99.90
49042;DHT22;34859;51.608;11.462;2023-06-22T14:10:03;29.30;99.90
49042;DHT22;34859;51.608;11.462;2023-06-22T14:12:29;29.40;99.90
49042;DHT22;34859;51.608;11.462;2023-06-22T14:14:54;29.30;99.90
49042;DHT22;34859;51.608;11.462;2023-06-22T14:17:20;29.50;99.90
49042;DHT22;34859;51.608;11.462;2023-06-22T14:19:49;29.50;99.90
49042;DHT22;34859;51.608;11.462;2023-06-22T14:22:15;29.50;99.90
49042;DHT22;34859;51.608;11.462;2023-06-22T14:24:40;29.40;99.90
49042;DHT22;34859;51.608;11.462;2023-06-22T14:27:07;29.50;99.90
49042;DHT22;34859;51.608;11.462;2023-06-22T14:29:34;29.30;99.90
49042;DHT22;34859;51.608;11.462;2023-06-22T14:31:59;29.20;99.90
49042;DHT22;34859;51.608;11.462;2023-06-22T14:34:30;29.20;99.90
49042;DHT22;34859;51.608;11.462;2023-06-22T14:36:57;29.20;99.90
49042;DHT22;34859;51.608;11.462;2023-06-22T14:39:22;29.20;99.90
49042;DHT22;34859;51.608;11.462;2023-06-22T14:41:48;29.10;99.90
49042;DHT22;34859;51.608;11.462;2023-06-22T14:44:13;29.10;99.90
49042;DHT22;34859;51.608;11.462;2023-06-22T14:46:39;28.90;99.90
49042;DHT22;34859;51.608;11.462;2023-06-22T14:49:04;28.90;99.90
49042;DHT22;34859;51.608;11.462;2023-06-22T14:51:31;28.80;99.90
49042;DHT22;34859;51.608;11.462;2023-06-22T14:53:57;28.80;99.90
49042;DHT22;34859;51.608;11.462;2023-06-22T14:56:22;28.70;99.90
49042;DHT22;34859;51.608;11.462;2023-06-22T14:58:48;28.60;99.90
49042;DHT22;34859;51.608;11.462;2023-06-22T15:01:16;28.60;99.90
49042;DHT22;34859;51.608;11.462;2023-06-22T15:03:41;28.80;99.90
49042;DHT22;34859;51.608;11.462;2023-06-22T15:06:08;28.90;99.90
49042;DHT22;34859;51.608;11.462;2023-06-22T15:08:33;29.10;99.90
49042;DHT22;34859;51.608;11.462;2023-06-22T15:11:00;29.00;99.90
49042;DHT22;34859;51.608;11.462;2023-06-22T15:13:30;28.90;99.90
49042;DHT22;34859;51.608;11.462;2023-06-22T15:15:58;28.70;99.90
49042;DHT22;34859;51.608;11.462;2023-06-22T15:18:23;28.60;99.90
49042;DHT22;34859;51.608;11.462;2023-06-22T15:20:49;28.60;99.90